sensor_id;sensor_type;location;lat;lon;timestamp;pressure;altitude;pressure_sealevel;temperature;humidity
11912;BME280;6016;41.928;25.556;2024-02-26T00:01:19;98757.38;;;13.05;74.69
11912;BME280;6016;41.928;25.556;2024-02-26T00:03:48;98606.31;;;11.81;75.68
11912;BME280;6016;41.928;25.556;2024-02-26T00:06:15;98761.00;;;12.96;75.51
11912;BME280;6016;41.928;25.556;2024-02-26T00:08:43;98608.22;;;12.05;74.84
11912;BME280;6016;41.928;25.556;2024-02-26T00:11:10;98759.19;;;13.05;74.44
11912;BME280;6016;41.928;25.556;2024-02-26T00:13:37;98708.72;;;12.82;73.93
11912;BME280;6016;41.928;25.556;2024-02-26T00:16:05;98748.94;;;13.10;74.20
11912;BME280;6016;41.928;25.556;2024-02-26T00:18:32;98751.91;;;13.07;74.55
11912;BME280;6016;41.928;25.556;2024-02-26T00:21:02;98733.03;;;12.93;75.08
11912;BME280;6016;41.928;25.556;2024-02-26T00:23:29;98701.59;;;12.82;75.31
11912;BME280;6016;41.928;25.556;2024-02-26T00:25:56;98524.84;;;11.68;74.19
11912;BME280;6016;41.928;25.556;2024-02-26T00:28:23;98588.91;;;12.05;74.39
11912;BME280;6016;41.928;25.556;2024-02-26T00:30:51;98741.13;;;13.00;74.66
11912;BME280;6016;41.928;25.556;2024-02-26T00:33:21;98557.28;;;11.87;74.54
11912;BME280;6016;41.928;25.556;2024-02-26T00:35:48;98736.00;;;12.90;74.90
11912;BME280;6016;41.928;25.556;2024-02-26T00:38:17;98726.59;;;12.96;74.99
11912;BME280;6016;41.928;25.556;2024-02-26T00:40:44;98735.69;;;12.93;75.00
11912;BME280;6016;41.928;25.556;2024-02-26T00:43:11;98724.28;;;12.93;75.07
11912;BME280;6016;41.928;25.556;2024-02-26T00:45:38;98690.00;;;12.66;75.02
11912;BME280;6016;41.928;25.556;2024-02-26T00:48:05;98671.44;;;12.42;74.84
11912;BME280;6016;41.928;25.556;2024-02-26T00:50:33;98730.53;;;12.84;74.86
11912;BME280;6016;41.928;25.556;2024-02-26T00:53:00;98714.97;;;12.72;75.32
11912;BME280;6016;41.928;25.556;2024-02-26T00:55:28;98678.56;;;12.49;74.88
11912;BME280;6016;41.928;25.556;2024-02-26T00:57:55;98605.66;;;11.79;76.12
11912;BME280;6016;41.928;25.556;2024-02-26T01:00:22;98724.41;;;12.75;76.00
11912;BME280;6016;41.928;25.556;2024-02-26T01:02:49;98695.28;;;12.66;74.68
11912;BME280;6016;41.928;25.556;2024-02-26T01:05:16;98717.81;;;12.87;74.47
11912;BME280;6016;41.928;25.556;2024-02-26T01:07:43;98657.56;;;12.48;74.55
11912;BME280;6016;41.928;25.556;2024-02-26T01:10:10;98155.22;;;9.39;74.50
11912;BME280;6016;41.928;25.556;2024-02-26T01:12:39;98622.13;;;12.16;75.04
11912;BME280;6016;41.928;25.556;2024-02-26T01:15:06;98699.56;;;12.51;75.06
11912;BME280;6016;41.928;25.556;2024-02-26T01:17:33;98671.75;;;12.38;74.87
11912;BME280;6016;41.928;25.556;2024-02-26T01:20:00;98706.47;;;12.44;76.30
11912;BME280;6016;41.928;25.556;2024-02-26T01:22:27;98637.84;;;12.17;75.08
11912;BME280;6016;41.928;25.556;2024-02-26T01:24:54;98696.94;;;12.68;74.61
11912;BME280;6016;41.928;25.556;2024-02-26T01:27:22;98599.47;;;12.13;74.73
11912;BME280;6016;41.928;25.556;2024-02-26T01:29:53;98695.66;;;12.72;74.84
11912;BME280;6016;41.928;25.556;2024-02-26T01:32:20;98669.47;;;12.52;75.03
11912;BME280;6016;41.928;25.556;2024-02-26T01:34:47;98666.81;;;12.35;75.60
11912;BME280;6016;41.928;25.556;2024-02-26T01:37:14;98598.09;;;12.01;75.30
11912;BME280;6016;41.928;25.556;2024-02-26T01:39:41;98695.94;;;12.69;75.51
11912;BME280;6016;41.928;25.556;2024-02-26T01:42:08;98667.97;;;12.41;75.15
11912;BME280;6016;41.928;25.556;2024-02-26T01:44:35;98682.06;;;12.58;75.13
11912;BME280;6016;41.928;25.556;2024-02-26T01:47:05;98612.53;;;12.15;75.22
11912;BME280;6016;41.928;25.556;2024-02-26T01:49:34;98700.72;;;12.40;75.03
11912;BME280;6016;41.928;25.556;2024-02-26T01:52:03;98653.91;;;12.41;75.36
11912;BME280;6016;41.928;25.556;2024-02-26T01:54:31;98696.94;;;12.68;75.39
11912;BME280;6016;41.928;25.556;2024-02-26T01:56:59;98695.94;;;12.69;75.24
11912;BME280;6016;41.928;25.556;2024-02-26T01:59:26;98688.34;;;12.65;74.37
11912;BME280;6016;41.928;25.556;2024-02-26T02:01:57;98687.81;;;12.45;73.79
11912;BME280;6016;41.928;25.556;2024-02-26T02:04:27;98686.59;;;12.23;73.89
11912;BME280;6016;41.928;25.556;2024-02-26T02:06:54;98637.34;;;11.79;74.88
11912;BME280;6016;41.928;25.556;2024-02-26T02:09:22;98695.97;;;12.09;75.45
11912;BME280;6016;41.928;25.556;2024-02-26T02:11:49;98660.69;;;11.92;75.07
11912;BME280;6016;41.928;25.556;2024-02-26T02:14:16;98689.22;;;12.15;75.81
11912;BME280;6016;41.928;25.556;2024-02-26T02:16:43;98691.72;;;12.16;74.84
11912;BME280;6016;41.928;25.556;2024-02-26T02:19:10;98688.88;;;12.18;75.39
11912;BME280;6016;41.928;25.556;2024-02-26T02:21:39;98692.22;;;12.20;75.75
11912;BME280;6016;41.928;25.556;2024-02-26T02:24:06;98516.94;;;11.17;75.73
11912;BME280;6016;41.928;25.556;2024-02-26T02:26:33;98563.25;;;11.46;74.99
11912;BME280;6016;41.928;25.556;2024-02-26T02:29:01;98628.91;;;11.75;75.54
11912;BME280;6016;41.928;25.556;2024-02-26T02:31:28;98562.81;;;11.67;75.45
11912;BME280;6016;41.928;25.556;2024-02-26T02:33:56;98605.22;;;12.00;74.45
11912;BME280;6016;41.928;25.556;2024-02-26T02:36:23;98624.78;;;12.07;74.13
11912;BME280;6016;41.928;25.556;2024-02-26T02:38:52;98695.59;;;12.47;74.06
11912;BME280;6016;41.928;25.556;2024-02-26T02:41:19;98678.72;;;12.48;74.96
11912;BME280;6016;41.928;25.556;2024-02-26T02:43:47;98678.56;;;12.49;74.64
11912;BME280;6016;41.928;25.556;2024-02-26T02:46:14;98580.91;;;11.88;74.04
11912;BME280;6016;41.928;25.556;2024-02-26T02:48:41;98624.28;;;12.20;75.00
11912;BME280;6016;41.928;25.556;2024-02-26T02:51:09;98692.38;;;12.18;76.04
11912;BME280;6016;41.928;25.556;2024-02-26T02:53:36;98685.13;;;12.37;75.30
11912;BME280;6016;41.928;25.556;2024-02-26T02:56:05;98660.31;;;12.21;74.28
11912;BME280;6016;41.928;25.556;2024-02-26T02:58:32;98628.75;;;12.12;73.96
11912;BME280;6016;41.928;25.556;2024-02-26T03:00:59;98671.97;;;12.54;73.98
11912;BME280;6016;41.928;25.556;2024-02-26T03:03:26;98628.25;;;12.24;74.44
11912;BME280;6016;41.928;25.556;2024-02-26T03:05:54;98612.84;;;12.03;74.55
11912;BME280;6016;41.928;25.556;2024-02-26T03:08:22;98558.56;;;11.74;74.65
11912;BME280;6016;41.928;25.556;2024-02-26T03:10:48;98675.09;;;12.49;74.34
11912;BME280;6016;41.928;25.556;2024-02-26T03:13:16;98679.72;;;12.47;75.02
11912;BME280;6016;41.928;25.556;2024-02-26T03:15:44;98670.25;;;12.28;74.69
11912;BME280;6016;41.928;25.556;2024-02-26T03:18:11;98674.56;;;12.37;74.33
11912;BME280;6016;41.928;25.556;2024-02-26T03:20:38;98662.63;;;12.24;75.24
11912;BME280;6016;41.928;25.556;2024-02-26T03:23:05;98681.19;;;12.41;73.94
11912;BME280;6016;41.928;25.556;2024-02-26T03:25:35;98486.44;;;11.31;73.38
11912;BME280;6016;41.928;25.556;2024-02-26T03:28:02;98675.59;;;12.44;73.56
11912;BME280;6016;41.928;25.556;2024-02-26T03:30:30;98679.38;;;12.42;74.15
11912;BME280;6016;41.928;25.556;2024-02-26T03:32:57;98502.28;;;11.31;74.79
11912;BME280;6016;41.928;25.556;2024-02-26T03:35:24;98690.16;;;12.57;74.98
11912;BME280;6016;41.928;25.556;2024-02-26T03:37:51;98579.72;;;11.74;73.98
11912;BME280;6016;41.928;25.556;2024-02-26T03:40:18;98652.34;;;12.05;74.63
11912;BME280;6016;41.928;25.556;2024-02-26T03:42:46;98631.19;;;12.05;73.88
11912;BME280;6016;41.928;25.556;2024-02-26T03:45:13;98690.78;;;12.42;75.17
11912;BME280;6016;41.928;25.556;2024-02-26T03:47:41;98689.78;;;12.43;75.11
11912;BME280;6016;41.928;25.556;2024-02-26T03:50:09;98676.03;;;12.31;73.98
11912;BME280;6016;41.928;25.556;2024-02-26T03:52:36;98568.91;;;11.59;73.28
11912;BME280;6016;41.928;25.556;2024-02-26T03:55:04;98689.78;;;12.35;73.77
11912;BME280;6016;41.928;25.556;2024-02-26T03:57:31;98693.78;;;12.39;73.36
11912;BME280;6016;41.928;25.556;2024-02-26T03:59:58;98694.44;;;12.41;74.07
11912;BME280;6016;41.928;25.556;2024-02-26T04:02:25;98687.13;;;12.27;73.95
11912;BME280;6016;41.928;25.556;2024-02-26T04:04:54;98692.44;;;12.43;74.73
11912;BME280;6016;41.928;25.556;2024-02-26T04:07:20;98691.94;;;12.40;73.82
11912;BME280;6016;41.928;25.556;2024-02-26T04:09:48;98695.09;;;12.43;74.15
11912;BME280;6016;41.928;25.556;2024-02-26T04:12:15;98692.78;;;12.40;74.14
11912;BME280;6016;41.928;25.556;2024-02-26T04:14:42;98692.78;;;12.40;74.09
11912;BME280;6016;41.928;25.556;2024-02-26T04:17:08;98691.78;;;12.41;74.15
11912;BME280;6016;41.928;25.556;2024-02-26T04:19:36;98691.59;;;12.43;74.10
11912;BME280;6016;41.928;25.556;2024-02-26T04:22:05;98681.69;;;12.36;73.89
11912;BME280;6016;41.928;25.556;2024-02-26T04:24:32;98517.78;;;11.25;74.01
11912;BME280;6016;41.928;25.556;2024-02-26T04:26:59;98699.53;;;12.43;74.91
11912;BME280;6016;41.928;25.556;2024-02-26T04:29:26;98698.38;;;12.37;73.52
11912;BME280;6016;41.928;25.556;2024-02-26T04:31:53;98703.19;;;12.33;74.48
11912;BME280;6016;41.928;25.556;2024-02-26T04:34:20;98703.97;;;12.34;75.78
11912;BME280;6016;41.928;25.556;2024-02-26T04:36:47;98666.56;;;12.12;75.30
11912;BME280;6016;41.928;25.556;2024-02-26T04:39:16;98505.34;;;11.09;73.79
11912;BME280;6016;41.928;25.556;2024-02-26T04:41:43;98695.72;;;12.37;73.64
11912;BME280;6016;41.928;25.556;2024-02-26T04:44:10;98695.91;;;12.35;74.20
11912;BME280;6016;41.928;25.556;2024-02-26T04:46:37;98693.88;;;12.21;73.83
11912;BME280;6016;41.928;25.556;2024-02-26T04:49:04;98683.13;;;11.88;74.71
11912;BME280;6016;41.928;25.556;2024-02-26T04:51:31;98602.16;;;10.82;76.68
11912;BME280;6016;41.928;25.556;2024-02-26T04:53:58;98688.81;;;11.40;77.17
11912;BME280;6016;41.928;25.556;2024-02-26T04:56:26;98674.53;;;11.51;77.86
11912;BME280;6016;41.928;25.556;2024-02-26T04:58:53;98681.97;;;11.56;78.36
11912;BME280;6016;41.928;25.556;2024-02-26T05:01:20;98686.00;;;11.68;79.10
11912;BME280;6016;41.928;25.556;2024-02-26T05:03:47;98512.94;;;10.78;76.58
11912;BME280;6016;41.928;25.556;2024-02-26T05:06:14;98671.72;;;11.79;76.92
11912;BME280;6016;41.928;25.556;2024-02-26T05:08:42;98684.78;;;11.89;76.24
11912;BME280;6016;41.928;25.556;2024-02-26T05:11:09;98698.34;;;11.94;77.40
11912;BME280;6016;41.928;25.556;2024-02-26T05:13:38;98694.22;;;11.91;78.14
11912;BME280;6016;41.928;25.556;2024-02-26T05:16:05;98648.34;;;11.66;77.80
11912;BME280;6016;41.928;25.556;2024-02-26T05:18:32;98706.91;;;12.14;76.50
11912;BME280;6016;41.928;25.556;2024-02-26T05:20:59;98700.66;;;12.23;76.01
11912;BME280;6016;41.928;25.556;2024-02-26T05:23:28;98660.06;;;11.98;75.88
11912;BME280;6016;41.928;25.556;2024-02-26T05:25:55;98719.84;;;12.34;74.57
11912;BME280;6016;41.928;25.556;2024-02-26T05:28:22;98720.69;;;12.34;74.57
11912;BME280;6016;41.928;25.556;2024-02-26T05:30:51;98522.81;;;11.10;76.28
11912;BME280;6016;41.928;25.556;2024-02-26T05:33:18;98708.28;;;12.35;74.32
11912;BME280;6016;41.928;25.556;2024-02-26T05:35:46;98757.22;;;12.31;74.07
11912;BME280;6016;41.928;25.556;2024-02-26T05:38:13;98721.50;;;12.35;74.48
11912;BME280;6016;41.928;25.556;2024-02-26T05:40:40;98616.84;;;11.73;73.85
11912;BME280;6016;41.928;25.556;2024-02-26T05:43:08;98690.91;;;12.24;74.41
11912;BME280;6016;41.928;25.556;2024-02-26T05:45:35;98686.25;;;12.09;74.13
11912;BME280;6016;41.928;25.556;2024-02-26T05:48:04;98710.31;;;12.49;73.61
11912;BME280;6016;41.928;25.556;2024-02-26T05:50:31;98710.16;;;12.51;73.80
11912;BME280;6016;41.928;25.556;2024-02-26T05:52:58;98679.53;;;12.32;74.53
11912;BME280;6016;41.928;25.556;2024-02-26T05:55:25;98561.66;;;11.61;74.07
11912;BME280;6016;41.928;25.556;2024-02-26T05:57:53;98683.50;;;12.28;74.34
11912;BME280;6016;41.928;25.556;2024-02-26T06:00:20;98610.50;;;12.00;74.15
11912;BME280;6016;41.928;25.556;2024-02-26T06:02:47;98722.09;;;12.72;74.46
11912;BME280;6016;41.928;25.556;2024-02-26T06:05:16;98705.38;;;12.55;74.70
11912;BME280;6016;41.928;25.556;2024-02-26T06:07:43;98366.50;;;10.39;75.59
11912;BME280;6016;41.928;25.556;2024-02-26T06:10:11;98725.28;;;12.32;74.84
11912;BME280;6016;41.928;25.556;2024-02-26T06:12:39;98730.16;;;12.54;75.14
11912;BME280;6016;41.928;25.556;2024-02-26T06:15:07;98727.41;;;12.72;73.81
11912;BME280;6016;41.928;25.556;2024-02-26T06:17:34;98623.78;;;12.17;73.17
11912;BME280;6016;41.928;25.556;2024-02-26T06:20:01;98719.47;;;12.72;73.33
11912;BME280;6016;41.928;25.556;2024-02-26T06:22:31;98640.50;;;12.34;73.41
11912;BME280;6016;41.928;25.556;2024-02-26T06:24:58;98412.56;;;10.88;73.71
11912;BME280;6016;41.928;25.556;2024-02-26T06:27:25;98705.09;;;12.91;74.49
11912;BME280;6016;41.928;25.556;2024-02-26T06:29:52;98611.56;;;12.32;73.06
11912;BME280;6016;41.928;25.556;2024-02-26T06:32:19;98749.59;;;13.20;72.67
11912;BME280;6016;41.928;25.556;2024-02-26T06:34:48;98683.75;;;12.84;73.15
11912;BME280;6016;41.928;25.556;2024-02-26T06:37:15;98733.19;;;13.25;73.25
11912;BME280;6016;41.928;25.556;2024-02-26T06:39:43;98715.19;;;13.12;72.92
11912;BME280;6016;41.928;25.556;2024-02-26T06:42:11;98736.84;;;13.41;72.92
11912;BME280;6016;41.928;25.556;2024-02-26T06:44:38;98736.66;;;13.42;72.13
11912;BME280;6016;41.928;25.556;2024-02-26T06:47:05;98732.75;;;13.46;71.52
11912;BME280;6016;41.928;25.556;2024-02-26T06:49:32;98661.06;;;12.98;71.87
11912;BME280;6016;41.928;25.556;2024-02-26T06:51:59;98731.41;;;13.59;71.62
11912;BME280;6016;41.928;25.556;2024-02-26T06:54:26;98742.97;;;13.66;71.01
11912;BME280;6016;41.928;25.556;2024-02-26T06:56:55;98691.31;;;13.37;70.77
11912;BME280;6016;41.928;25.556;2024-02-26T06:59:22;98713.84;;;13.49;70.83
11912;BME280;6016;41.928;25.556;2024-02-26T07:01:49;98717.81;;;13.62;71.60
11912;BME280;6016;41.928;25.556;2024-02-26T07:04:16;98710.50;;;13.64;71.26
11912;BME280;6016;41.928;25.556;2024-02-26T07:06:43;98651.59;;;13.20;70.59
11912;BME280;6016;41.928;25.556;2024-02-26T07:09:12;98742.16;;;13.57;70.46
11912;BME280;6016;41.928;25.556;2024-02-26T07:11:39;98748.22;;;13.91;70.85
11912;BME280;6016;41.928;25.556;2024-02-26T07:14:09;98705.56;;;13.61;70.61
11912;BME280;6016;41.928;25.556;2024-02-26T07:16:36;98755.81;;;13.94;71.47
11912;BME280;6016;41.928;25.556;2024-02-26T07:19:03;98754.81;;;13.95;71.69
11912;BME280;6016;41.928;25.556;2024-02-26T07:21:30;98750.66;;;14.01;71.36
11912;BME280;6016;41.928;25.556;2024-02-26T07:23:57;98746.50;;;14.06;71.21
11912;BME280;6016;41.928;25.556;2024-02-26T07:26:24;98707.50;;;13.67;70.21
11912;BME280;6016;41.928;25.556;2024-02-26T07:28:51;98708.28;;;13.84;71.26
11912;BME280;6016;41.928;25.556;2024-02-26T07:31:20;98747.47;;;14.14;70.85
11912;BME280;6016;41.928;25.556;2024-02-26T07:33:47;98667.25;;;13.72;70.53
11912;BME280;6016;41.928;25.556;2024-02-26T07:36:14;98656.84;;;13.62;70.64
11912;BME280;6016;41.928;25.556;2024-02-26T07:38:41;98727.41;;;14.11;71.16
11912;BME280;6016;41.928;25.556;2024-02-26T07:41:08;98577.28;;;13.14;71.12
11912;BME280;6016;41.928;25.556;2024-02-26T07:43:35;98759.66;;;14.31;71.63
11912;BME280;6016;41.928;25.556;2024-02-26T07:46:02;98755.41;;;14.22;71.81
11912;BME280;6016;41.928;25.556;2024-02-26T07:48:30;98719.31;;;14.13;72.34
11912;BME280;6016;41.928;25.556;2024-02-26T07:50:58;98747.66;;;14.44;72.37
11912;BME280;6016;41.928;25.556;2024-02-26T07:53:25;98743.75;;;14.31;71.53
11912;BME280;6016;41.928;25.556;2024-02-26T07:55:53;98725.75;;;14.18;71.25
11912;BME280;6016;41.928;25.556;2024-02-26T07:58:20;98609.28;;;13.69;70.84
11912;BME280;6016;41.928;25.556;2024-02-26T08:00:46;98732.41;;;14.46;69.80
11912;BME280;6016;41.928;25.556;2024-02-26T08:03:14;98626.00;;;13.69;70.48
11912;BME280;6016;41.928;25.556;2024-02-26T08:05:43;98731.88;;;14.51;70.43
11912;BME280;6016;41.928;25.556;2024-02-26T08:08:10;98615.88;;;13.73;69.47
11912;BME280;6016;41.928;25.556;2024-02-26T08:10:37;98742.63;;;14.57;69.31
11912;BME280;6016;41.928;25.556;2024-02-26T08:13:07;98746.59;;;14.61;69.48
11912;BME280;6016;41.928;25.556;2024-02-26T08:15:35;98746.72;;;14.68;69.33
11912;BME280;6016;41.928;25.556;2024-02-26T08:18:03;98666.16;;;14.29;69.26
11912;BME280;6016;41.928;25.556;2024-02-26T08:20:31;98616.13;;;13.95;68.95
11912;BME280;6016;41.928;25.556;2024-02-26T08:23:00;98663.16;;;14.32;68.80
11912;BME280;6016;41.928;25.556;2024-02-26T08:25:27;98598.22;;;13.97;68.37
11912;BME280;6016;41.928;25.556;2024-02-26T08:27:55;98723.59;;;14.85;69.13
11912;BME280;6016;41.928;25.556;2024-02-26T08:30:25;98756.75;;;14.89;68.70
11912;BME280;6016;41.928;25.556;2024-02-26T08:32:52;98764.00;;;14.96;67.74
11912;BME280;6016;41.928;25.556;2024-02-26T08:35:19;98754.84;;;14.98;67.46
11912;BME280;6016;41.928;25.556;2024-02-26T08:37:47;98703.13;;;14.62;67.40
11912;BME280;6016;41.928;25.556;2024-02-26T08:40:16;98747.66;;;14.84;67.33
11912;BME280;6016;41.928;25.556;2024-02-26T08:42:45;98757.31;;;14.76;68.02
11912;BME280;6016;41.928;25.556;2024-02-26T08:45:13;98730.34;;;14.56;68.20
11912;BME280;6016;41.928;25.556;2024-02-26T08:47:40;98757.25;;;14.85;67.60
11912;BME280;6016;41.928;25.556;2024-02-26T08:50:08;98750.78;;;14.87;67.58
11912;BME280;6016;41.928;25.556;2024-02-26T08:52:37;98705.00;;;14.54;67.78
11912;BME280;6016;41.928;25.556;2024-02-26T08:55:06;98761.03;;;14.90;68.34
11912;BME280;6016;41.928;25.556;2024-02-26T08:57:35;98757.22;;;14.93;67.04
11912;BME280;6016;41.928;25.556;2024-02-26T09:00:05;98754.97;;;15.05;68.18
11912;BME280;6016;41.928;25.556;2024-02-26T09:02:32;98701.66;;;14.83;67.25
11912;BME280;6016;41.928;25.556;2024-02-26T09:04:59;98725.38;;;15.08;66.76
11912;BME280;6016;41.928;25.556;2024-02-26T09:07:26;98735.91;;;15.25;65.97
11912;BME280;6016;41.928;25.556;2024-02-26T09:09:54;98745.97;;;15.29;65.93
11912;BME280;6016;41.928;25.556;2024-02-26T09:12:21;98715.22;;;15.12;66.07
11912;BME280;6016;41.928;25.556;2024-02-26T09:14:49;98650.09;;;14.77;66.17
11912;BME280;6016;41.928;25.556;2024-02-26T09:17:17;98678.34;;;14.94;65.20
11912;BME280;6016;41.928;25.556;2024-02-26T09:19:44;98655.69;;;14.59;65.26
11912;BME280;6016;41.928;25.556;2024-02-26T09:22:11;98710.88;;;14.96;65.75
11912;BME280;6016;41.928;25.556;2024-02-26T09:24:38;98680.69;;;14.73;65.64
11912;BME280;6016;41.928;25.556;2024-02-26T09:27:05;98640.63;;;14.52;66.12
11912;BME280;6016;41.928;25.556;2024-02-26T09:29:35;98484.22;;;13.33;67.45
11912;BME280;6016;41.928;25.556;2024-02-26T09:32:04;98734.88;;;15.26;66.50
11912;BME280;6016;41.928;25.556;2024-02-26T09:34:31;98732.22;;;15.26;65.88
11912;BME280;6016;41.928;25.556;2024-02-26T09:36:59;98616.34;;;14.63;66.96
11912;BME280;6016;41.928;25.556;2024-02-26T09:39:26;98633.38;;;14.69;66.01
11912;BME280;6016;41.928;25.556;2024-02-26T09:41:53;98736.28;;;15.37;65.43
11912;BME280;6016;41.928;25.556;2024-02-26T09:44:20;98610.97;;;14.71;65.60
11912;BME280;6016;41.928;25.556;2024-02-26T09:46:48;98619.25;;;14.76;65.02
11912;BME280;6016;41.928;25.556;2024-02-26T09:49:18;98682.91;;;14.85;64.81
11912;BME280;6016;41.928;25.556;2024-02-26T09:51:47;98283.69;;;12.64;64.61
11912;BME280;6016;41.928;25.556;2024-02-26T09:54:18;98723.84;;;15.52;65.27
11912;BME280;6016;41.928;25.556;2024-02-26T09:56:47;98732.22;;;15.64;64.60
11912;BME280;6016;41.928;25.556;2024-02-26T09:59:17;98702.19;;;15.40;64.48
11912;BME280;6016;41.928;25.556;2024-02-26T10:01:45;98702.56;;;15.37;63.82
11912;BME280;6016;41.928;25.556;2024-02-26T10:04:13;98681.03;;;15.47;64.77
11912;BME280;6016;41.928;25.556;2024-02-26T10:06:42;98719.91;;;15.78;62.98
11912;BME280;6016;41.928;25.556;2024-02-26T10:09:10;98704.97;;;15.77;62.87
11912;BME280;6016;41.928;25.556;2024-02-26T10:11:38;98682.03;;;15.76;62.12
11912;BME280;6016;41.928;25.556;2024-02-26T10:14:08;98722.25;;;16.11;62.50
11912;BME280;6016;41.928;25.556;2024-02-26T10:16:37;98718.28;;;16.22;61.89
11912;BME280;6016;41.928;25.556;2024-02-26T10:19:04;98722.16;;;16.20;61.37
11912;BME280;6016;41.928;25.556;2024-02-26T10:21:31;98719.56;;;16.26;61.58
11912;BME280;6016;41.928;25.556;2024-02-26T10:24:00;98594.34;;;15.46;60.82
11912;BME280;6016;41.928;25.556;2024-02-26T10:26:27;98712.94;;;16.37;59.81
11912;BME280;6016;41.928;25.556;2024-02-26T10:28:59;98699.69;;;16.07;59.71
11912;BME280;6016;41.928;25.556;2024-02-26T10:31:26;98694.31;;;16.22;60.20
11912;BME280;6016;41.928;25.556;2024-02-26T10:33:55;98635.66;;;15.79;60.42
11912;BME280;6016;41.928;25.556;2024-02-26T10:36:22;98667.75;;;15.92;60.08
11912;BME280;6016;41.928;25.556;2024-02-26T10:38:49;98645.19;;;15.88;60.44
11912;BME280;6016;41.928;25.556;2024-02-26T10:41:17;98685.00;;;16.11;60.84
11912;BME280;6016;41.928;25.556;2024-02-26T10:43:44;98696.34;;;16.05;60.50
11912;BME280;6016;41.928;25.556;2024-02-26T10:46:11;98665.09;;;15.92;61.31
11912;BME280;6016;41.928;25.556;2024-02-26T10:48:38;98627.22;;;15.75;60.49
11912;BME280;6016;41.928;25.556;2024-02-26T10:51:06;98698.00;;;16.21;59.69
11912;BME280;6016;41.928;25.556;2024-02-26T10:53:36;98691.41;;;16.17;59.90
11912;BME280;6016;41.928;25.556;2024-02-26T10:56:04;98689.72;;;16.31;60.49
11912;BME280;6016;41.928;25.556;2024-02-26T10:58:33;98649.28;;;16.21;59.74
11912;BME280;6016;41.928;25.556;2024-02-26T11:01:01;98677.66;;;16.50;59.01
11912;BME280;6016;41.928;25.556;2024-02-26T11:03:31;98672.00;;;16.60;58.67
11912;BME280;6016;41.928;25.556;2024-02-26T11:06:01;98671.69;;;16.70;59.33
11912;BME280;6016;41.928;25.556;2024-02-26T11:08:30;98582.31;;;16.17;59.80
11912;BME280;6016;41.928;25.556;2024-02-26T11:10:58;98622.41;;;16.37;57.88
11912;BME280;6016;41.928;25.556;2024-02-26T11:13:28;98663.38;;;16.36;56.39
11912;BME280;6016;41.928;25.556;2024-02-26T11:15:58;98666.06;;;16.58;56.80
11912;BME280;6016;41.928;25.556;2024-02-26T11:18:27;98578.09;;;16.08;57.94
11912;BME280;6016;41.928;25.556;2024-02-26T11:20:54;98487.06;;;15.69;56.73
11912;BME280;6016;41.928;25.556;2024-02-26T11:23:24;98606.44;;;16.37;57.72
11912;BME280;6016;41.928;25.556;2024-02-26T11:25:52;98654.13;;;16.76;58.35
11912;BME280;6016;41.928;25.556;2024-02-26T11:28:21;98549.97;;;16.20;56.21
11912;BME280;6016;41.928;25.556;2024-02-26T11:30:49;98638.81;;;16.84;57.82
11912;BME280;6016;41.928;25.556;2024-02-26T11:33:19;98503.81;;;16.06;57.82
11912;BME280;6016;41.928;25.556;2024-02-26T11:35:47;98635.53;;;17.04;58.32
11912;BME280;6016;41.928;25.556;2024-02-26T11:38:19;98526.19;;;16.62;58.03
11912;BME280;6016;41.928;25.556;2024-02-26T11:40:46;98497.81;;;16.48;56.55
11912;BME280;6016;41.928;25.556;2024-02-26T11:43:14;98306.09;;;15.49;55.65
11912;BME280;6016;41.928;25.556;2024-02-26T11:45:50;98601.81;;;17.60;55.21
11912;BME280;6016;41.928;25.556;2024-02-26T11:48:23;98601.88;;;17.74;53.32
11912;BME280;6016;41.928;25.556;2024-02-26T11:50:52;98549.28;;;17.54;52.02
11912;BME280;6016;41.928;25.556;2024-02-26T11:53:20;98414.81;;;16.72;51.73
11912;BME280;6016;41.928;25.556;2024-02-26T11:55:48;98604.22;;;17.90;51.03
11912;BME280;6016;41.928;25.556;2024-02-26T11:58:15;98601.16;;;17.93;50.54
11912;BME280;6016;41.928;25.556;2024-02-26T12:00:42;98558.34;;;17.60;51.08
11912;BME280;6016;41.928;25.556;2024-02-26T12:03:10;98458.16;;;16.95;52.21
11912;BME280;6016;41.928;25.556;2024-02-26T12:05:39;98596.03;;;17.98;55.05
11912;BME280;6016;41.928;25.556;2024-02-26T12:08:07;98548.72;;;17.65;52.09
11912;BME280;6016;41.928;25.556;2024-02-26T12:10:38;98592.59;;;18.05;53.36
11912;BME280;6016;41.928;25.556;2024-02-26T12:13:07;98576.19;;;18.08;53.07
11912;BME280;6016;41.928;25.556;2024-02-26T12:15:37;98541.56;;;17.72;50.43
11912;BME280;6016;41.928;25.556;2024-02-26T12:18:05;98518.94;;;17.55;52.42
11912;BME280;6016;41.928;25.556;2024-02-26T12:20:33;98581.22;;;17.82;52.56
11912;BME280;6016;41.928;25.556;2024-02-26T12:23:02;98575.06;;;17.89;53.83
11912;BME280;6016;41.928;25.556;2024-02-26T12:25:31;98584.28;;;17.86;52.60
11912;BME280;6016;41.928;25.556;2024-02-26T12:27:58;98589.22;;;17.82;53.42
11912;BME280;6016;41.928;25.556;2024-02-26T12:30:26;98519.22;;;17.32;52.95
11912;BME280;6016;41.928;25.556;2024-02-26T12:32:55;98600.69;;;17.76;52.84
11912;BME280;6016;41.928;25.556;2024-02-26T12:35:24;98592.81;;;17.61;52.59
11912;BME280;6016;41.928;25.556;2024-02-26T12:37:52;98602.94;;;17.79;52.46
11912;BME280;6016;41.928;25.556;2024-02-26T12:40:23;98591.69;;;17.91;53.14
11912;BME280;6016;41.928;25.556;2024-02-26T12:42:50;98567.81;;;17.76;52.64
11912;BME280;6016;41.928;25.556;2024-02-26T12:45:19;98539.25;;;17.56;51.98
11912;BME280;6016;41.928;25.556;2024-02-26T12:47:46;98598.06;;;17.96;52.50
11912;BME280;6016;41.928;25.556;2024-02-26T12:50:13;98590.44;;;17.80;52.34
11912;BME280;6016;41.928;25.556;2024-02-26T12:52:43;98578.34;;;17.84;52.89
11912;BME280;6016;41.928;25.556;2024-02-26T12:55:13;98592.91;;;17.88;51.76
11912;BME280;6016;41.928;25.556;2024-02-26T12:57:43;98496.66;;;17.27;50.78
11912;BME280;6016;41.928;25.556;2024-02-26T13:00:12;98604.59;;;17.87;51.36
11912;BME280;6016;41.928;25.556;2024-02-26T13:02:41;98632.13;;;17.88;53.54